createdAt,value
2018-11-11T00:00:48.625Z,13.20
2018-11-11T00:03:16.814Z,13.20
2018-11-11T00:05:44.998Z,13.10
2018-11-11T00:08:13.604Z,13.10
2018-11-11T00:10:41.799Z,13.00
2018-11-11T00:13:10.021Z,13.00
2018-11-11T00:15:38.237Z,13.00
2018-11-11T00:18:06.434Z,13.00
2018-11-11T00:20:34.688Z,12.90
2018-11-11T00:23:02.935Z,12.90
2018-11-11T00:25:31.152Z,13.00
2018-11-11T00:27:59.323Z,13.00
2018-11-11T00:30:27.501Z,12.90
2018-11-11T00:32:55.737Z,12.90
2018-11-11T00:35:23.961Z,12.90
2018-11-11T00:37:52.198Z,12.90
2018-11-11T00:40:20.409Z,12.80
2018-11-11T00:42:48.601Z,12.80
2018-11-11T00:45:16.930Z,12.80
2018-11-11T00:47:45.733Z,12.80
2018-11-11T00:50:13.920Z,12.70
2018-11-11T00:52:42.138Z,12.70
2018-11-11T00:55:16.405Z,12.70
2018-11-11T00:57:44.989Z,12.70
2018-11-11T01:00:14.962Z,12.60
2018-11-11T01:02:43.914Z,12.60
2018-11-11T01:05:12.794Z,12.60
2018-11-11T01:07:41.688Z,12.50
2018-11-11T01:10:11.873Z,12.50
2018-11-11T01:12:40.821Z,12.40
2018-11-11T01:15:10.317Z,12.40
2018-11-11T01:17:38.626Z,12.40
2018-11-11T01:20:08.346Z,12.40
2018-11-11T01:22:36.715Z,12.40
2018-11-11T01:25:05.888Z,12.40
2018-11-11T01:27:34.105Z,12.40
2018-11-11T01:30:02.307Z,12.40
2018-11-11T01:32:30.566Z,12.40
2018-11-11T01:34:58.841Z,12.40
2018-11-11T01:37:27.092Z,12.40
2018-11-11T01:39:55.311Z,12.40
2018-11-11T01:42:23.513Z,12.40
2018-11-11T01:44:51.725Z,12.40
2018-11-11T01:47:19.933Z,12.40
2018-11-11T01:49:48.132Z,12.50
2018-11-11T01:52:16.452Z,12.60
2018-11-11T01:54:44.645Z,12.60
2018-11-11T01:57:12.878Z,12.70
2018-11-11T01:59:41.083Z,12.70
2018-11-11T02:02:09.302Z,12.70
2018-11-11T02:04:37.518Z,12.80
2018-11-11T02:07:05.939Z,12.80
2018-11-11T02:09:34.295Z,12.80
2018-11-11T02:12:02.448Z,12.80
2018-11-11T02:14:30.657Z,12.80
2018-11-11T02:16:58.840Z,12.80
2018-11-11T02:19:27.058Z,12.70
2018-11-11T02:21:55.284Z,12.80
2018-11-11T02:24:23.525Z,12.70
2018-11-11T02:26:51.811Z,12.70
2018-11-11T02:29:20.075Z,12.70
2018-11-11T02:31:48.401Z,12.60
2018-11-11T02:34:16.658Z,12.60
2018-11-11T02:36:44.865Z,12.50
2018-11-11T02:39:13.130Z,12.50
2018-11-11T02:41:41.325Z,12.50
2018-11-11T02:44:09.559Z,12.40
2018-11-11T02:46:37.807Z,12.50
2018-11-11T02:49:06.036Z,12.40
2018-11-11T02:51:34.372Z,12.40
2018-11-11T02:54:02.630Z,12.50
2018-11-11T02:56:30.856Z,12.40
2018-11-11T02:58:59.065Z,12.50
2018-11-11T03:01:27.293Z,12.50
2018-11-11T03:03:55.509Z,12.50
2018-11-11T03:06:23.717Z,12.50
2018-11-11T03:08:51.916Z,12.50
2018-11-11T03:11:20.121Z,12.50
2018-11-11T03:13:48.378Z,12.50
2018-11-11T03:16:16.602Z,12.50
2018-11-11T03:18:44.812Z,12.50
2018-11-11T03:21:13.033Z,12.50
2018-11-11T03:23:41.259Z,12.60
2018-11-11T03:26:09.490Z,12.60
2018-11-11T03:28:37.745Z,12.60
2018-11-11T03:31:06.054Z,12.60
2018-11-11T03:33:34.294Z,12.50
2018-11-11T03:36:02.540Z,12.50
2018-11-11T03:38:30.743Z,12.60
2018-11-11T03:40:58.972Z,12.60
2018-11-11T03:43:27.276Z,12.60
2018-11-11T03:45:55.529Z,12.60
2018-11-11T03:48:23.750Z,12.70
2018-11-11T03:50:51.975Z,12.70
2018-11-11T03:53:20.254Z,12.70
2018-11-11T03:55:48.482Z,12.70
2018-11-11T03:58:16.717Z,12.80
2018-11-11T04:00:44.957Z,12.80
2018-11-11T04:03:13.165Z,12.80
2018-11-11T04:05:41.380Z,12.80
2018-11-11T04:08:09.584Z,12.80
2018-11-11T04:10:37.788Z,12.80
2018-11-11T04:13:06.055Z,12.80
2018-11-11T04:15:34.305Z,12.80
2018-11-11T04:18:02.538Z,12.80
2018-11-11T04:20:30.785Z,12.80
2018-11-11T04:22:58.977Z,12.80
2018-11-11T04:25:27.172Z,12.80
2018-11-11T04:27:55.367Z,12.70
2018-11-11T04:30:23.575Z,12.70
2018-11-11T04:32:51.758Z,12.70
2018-11-11T04:35:19.945Z,12.60
2018-11-11T04:37:48.161Z,12.60
2018-11-11T04:40:16.373Z,12.60
2018-11-11T04:42:44.577Z,12.60
2018-11-11T04:45:14.034Z,12.60
2018-11-11T04:47:42.744Z,12.60
2018-11-11T04:50:12.418Z,12.60
2018-11-11T04:52:40.744Z,12.50
2018-11-11T04:55:09.589Z,12.40
2018-11-11T04:57:37.890Z,12.40
2018-11-11T05:00:07.425Z,12.30
2018-11-11T05:02:35.642Z,12.30
2018-11-11T05:05:03.864Z,12.30
2018-11-11T05:07:33.434Z,12.20
2018-11-11T05:10:01.639Z,12.30
2018-11-11T05:12:29.827Z,12.20
2018-11-11T05:14:58.022Z,12.30
2018-11-11T05:17:26.248Z,12.30
2018-11-11T05:19:54.505Z,12.20
2018-11-11T05:22:22.744Z,12.20
2018-11-11T05:24:50.964Z,12.20
2018-11-11T05:27:19.158Z,12.20
2018-11-11T05:29:47.377Z,12.20
2018-11-11T05:32:15.615Z,12.20
2018-11-11T05:34:43.835Z,12.20
2018-11-11T05:37:12.055Z,12.20
2018-11-11T05:39:40.286Z,12.20
2018-11-11T05:42:08.534Z,12.30
2018-11-11T05:44:36.740Z,12.30
2018-11-11T05:47:05.137Z,12.30
2018-11-11T05:49:33.357Z,12.30
2018-11-11T05:52:01.562Z,12.30
2018-11-11T05:54:29.786Z,12.30
2018-11-11T05:56:58.024Z,12.30
2018-11-11T05:59:26.222Z,12.30
2018-11-11T06:01:54.457Z,12.30
2018-11-11T06:04:22.666Z,12.30
2018-11-11T06:06:50.897Z,12.30
2018-11-11T06:09:19.105Z,12.40
2018-11-11T06:11:47.309Z,12.40
2018-11-11T06:14:15.533Z,12.40
2018-11-11T06:16:43.736Z,12.40
2018-11-11T06:19:11.948Z,12.40
2018-11-11T06:21:40.128Z,12.40
2018-11-11T06:24:08.342Z,12.40
2018-11-11T06:26:37.377Z,12.40
2018-11-11T06:29:06.030Z,12.40
2018-11-11T06:31:34.262Z,12.40
2018-11-11T06:34:02.556Z,12.40
2018-11-11T06:36:30.713Z,12.40
2018-11-11T06:38:58.945Z,12.50
2018-11-11T06:41:28.005Z,12.50
2018-11-11T06:43:56.205Z,12.50
2018-11-11T06:46:24.417Z,12.40
2018-11-11T06:48:53.160Z,12.40
2018-11-11T06:51:21.384Z,12.30
2018-11-11T06:53:49.690Z,12.40
2018-11-11T06:56:17.897Z,12.40
2018-11-11T06:58:46.089Z,12.40
2018-11-11T07:01:14.357Z,12.40
2018-11-11T07:03:49.717Z,12.50
2018-11-11T07:06:17.989Z,12.50
2018-11-11T07:08:46.192Z,12.40
2018-11-11T07:11:14.824Z,12.50
2018-11-11T07:13:43.035Z,12.50
2018-11-11T07:16:11.678Z,12.40
2018-11-11T07:18:39.893Z,12.50
2018-11-11T07:21:08.331Z,12.50
2018-11-11T07:23:36.712Z,12.50
2018-11-11T07:26:05.197Z,12.50
2018-11-11T07:28:33.449Z,12.50
2018-11-11T07:31:01.673Z,12.50
2018-11-11T07:33:30.015Z,12.50
2018-11-11T07:35:58.762Z,12.60
2018-11-11T07:38:26.968Z,12.70
2018-11-11T07:40:55.201Z,12.90
2018-11-11T07:43:23.426Z,13.20
2018-11-11T07:45:51.623Z,13.40
2018-11-11T07:48:20.250Z,15.10
2018-11-11T07:50:48.489Z,14.60
2018-11-11T07:53:16.689Z,14.40
2018-11-11T07:55:44.901Z,14.30
2018-11-11T07:58:13.196Z,14.20
2018-11-11T08:00:41.345Z,14.10
2018-11-11T08:03:09.589Z,13.90
2018-11-11T08:05:37.784Z,13.70
2018-11-11T08:08:05.998Z,13.60
2018-11-11T08:10:45.751Z,13.50
2018-11-11T08:13:13.977Z,13.50
2018-11-11T08:15:42.195Z,13.50
2018-11-11T08:18:10.455Z,13.60
2018-11-11T08:20:38.737Z,13.80
2018-11-11T08:23:06.957Z,13.80
2018-11-11T08:25:35.224Z,13.70
2018-11-11T08:28:03.348Z,13.70
2018-11-11T08:30:31.553Z,13.70
2018-11-11T08:32:59.752Z,13.70
2018-11-11T08:35:27.955Z,13.70
2018-11-11T08:37:56.212Z,13.70
2018-11-11T08:40:24.584Z,13.80
2018-11-11T08:42:52.708Z,13.80
2018-11-11T08:45:20.912Z,13.90
2018-11-11T08:47:49.237Z,13.80
2018-11-11T08:50:17.483Z,13.90
2018-11-11T08:52:45.704Z,14.00
2018-11-11T08:55:14.128Z,14.10
2018-11-11T08:57:42.396Z,13.70
2018-11-11T09:00:12.073Z,13.60
2018-11-11T09:02:40.656Z,13.80
2018-11-11T09:05:08.963Z,13.90
2018-11-11T09:07:37.528Z,13.90
2018-11-11T09:10:06.780Z,13.90
2018-11-11T09:12:35.007Z,13.80
2018-11-11T09:15:03.250Z,13.80
2018-11-11T09:17:31.497Z,13.80
2018-11-11T09:19:59.717Z,13.90
2018-11-11T09:22:27.917Z,13.90
2018-11-11T09:24:56.240Z,13.90
2018-11-11T09:27:24.456Z,14.00
2018-11-11T09:29:52.648Z,14.30
2018-11-11T09:32:20.885Z,14.30
2018-11-11T09:34:49.075Z,14.80
2018-11-11T09:37:17.269Z,15.10
2018-11-11T09:39:45.525Z,18.90
2018-11-11T09:42:13.727Z,21.60
2018-11-11T09:44:41.921Z,23.50
2018-11-11T09:49:38.089Z,23.70
2018-11-11T09:52:06.292Z,21.90
2018-11-11T09:54:34.517Z,21.80
2018-11-11T09:57:02.753Z,22.00
2018-11-11T09:59:31.031Z,27.30
2018-11-11T10:01:59.197Z,27.20
2018-11-11T10:04:30.541Z,25.20
2018-11-11T10:07:05.135Z,22.80
2018-11-11T10:09:42.687Z,21.00
2018-11-11T10:12:21.116Z,19.90
2018-11-11T10:16:58.310Z,19.50
2018-11-11T10:19:31.357Z,19.60
2018-11-11T10:22:05.005Z,19.20
2018-11-11T10:24:40.545Z,18.90
2018-11-11T10:27:19.868Z,18.40
2018-11-11T10:32:00.564Z,18.00
2018-11-11T10:34:31.843Z,17.40
2018-11-11T10:37:03.728Z,16.60
2018-11-11T10:39:38.479Z,16.60
2018-11-11T10:42:12.216Z,16.60
2018-11-11T10:44:47.589Z,16.90
2018-11-11T10:47:22.754Z,17.20
2018-11-11T10:49:56.118Z,17.40
2018-11-11T10:52:24.345Z,17.90
2018-11-11T10:54:52.543Z,18.30
2018-11-11T10:57:20.771Z,18.80
2018-11-11T10:59:49.462Z,18.90
2018-11-11T11:02:37.796Z,19.10
2018-11-11T11:05:10.269Z,19.30
2018-11-11T11:07:38.511Z,19.80
2018-11-11T11:10:07.116Z,19.50
2018-11-11T11:12:35.656Z,18.90
2018-11-11T11:15:03.919Z,18.40
2018-11-11T11:17:32.120Z,18.10
2018-11-11T11:20:00.343Z,17.70
2018-11-11T11:22:28.571Z,17.40
2018-11-11T11:24:56.774Z,17.20
2018-11-11T11:27:25.068Z,17.10
2018-11-11T11:29:59.969Z,16.90
2018-11-11T11:32:28.153Z,17.00
2018-11-11T11:34:56.344Z,17.00
2018-11-11T11:37:25.020Z,17.30
2018-11-11T11:39:53.223Z,17.30
2018-11-11T11:42:21.418Z,17.10
2018-11-11T11:44:49.625Z,17.10
2018-11-11T11:47:17.922Z,17.00
2018-11-11T11:49:46.041Z,16.90
2018-11-11T11:52:14.206Z,16.80
2018-11-11T11:54:42.448Z,16.80
2018-11-11T11:57:10.676Z,16.50
2018-11-11T11:59:38.891Z,16.60
2018-11-11T12:02:07.270Z,16.80
2018-11-11T12:04:35.429Z,16.80
2018-11-11T12:07:03.641Z,17.00
2018-11-11T12:09:31.880Z,17.10
2018-11-11T12:12:00.171Z,17.10
2018-11-11T12:14:28.426Z,17.10
2018-11-11T12:16:56.688Z,17.20
2018-11-11T12:19:24.907Z,17.20
2018-11-11T12:21:53.124Z,17.20
2018-11-11T12:24:21.343Z,17.20
2018-11-11T12:26:49.621Z,17.00
2018-11-11T12:29:17.880Z,16.80
2018-11-11T12:31:46.101Z,16.70
2018-11-11T12:34:14.390Z,16.60
2018-11-11T12:36:42.593Z,16.50
2018-11-11T12:39:12.234Z,16.50
2018-11-11T12:41:40.483Z,16.20
2018-11-11T12:44:09.437Z,16.10
2018-11-11T12:46:37.717Z,16.10
2018-11-11T12:49:05.932Z,16.10
2018-11-11T12:51:34.187Z,16.10
2018-11-11T12:54:02.514Z,16.10
2018-11-11T12:56:30.740Z,16.00
2018-11-11T12:58:59.017Z,15.90
2018-11-11T13:01:27.287Z,15.90
2018-11-11T13:03:55.637Z,15.90
2018-11-11T13:06:23.838Z,15.90
2018-11-11T13:08:52.067Z,15.80
2018-11-11T13:11:20.423Z,15.90
2018-11-11T13:13:48.661Z,15.90
2018-11-11T13:16:16.869Z,15.90
2018-11-11T13:18:45.193Z,15.90
2018-11-11T13:21:13.375Z,15.90
2018-11-11T13:23:41.599Z,15.80
2018-11-11T13:26:09.782Z,15.80
2018-11-11T13:28:38.046Z,15.70
2018-11-11T13:31:06.632Z,15.50
2018-11-11T13:33:34.845Z,15.50
2018-11-11T13:36:03.080Z,15.40
2018-11-11T13:38:31.404Z,15.40
2018-11-11T13:40:59.450Z,15.20
2018-11-11T13:43:27.661Z,15.10
2018-11-11T13:45:55.954Z,15.20
2018-11-11T13:48:24.189Z,15.20
2018-11-11T13:50:52.431Z,15.10
2018-11-11T13:53:21.511Z,15.00
2018-11-11T13:55:49.782Z,15.00
2018-11-11T13:58:17.953Z,14.90
2018-11-11T14:00:46.173Z,14.90
2018-11-11T14:03:14.466Z,14.80
2018-11-11T14:05:42.699Z,14.90
2018-11-11T14:08:11.046Z,14.70
2018-11-11T14:10:39.264Z,14.50
2018-11-11T14:13:07.449Z,14.30
2018-11-11T14:15:35.664Z,14.30
2018-11-11T14:18:03.930Z,14.40
2018-11-11T14:20:32.222Z,14.30
2018-11-11T14:23:00.385Z,14.10
2018-11-11T14:25:29.661Z,14.20
2018-11-11T14:27:57.873Z,14.10
2018-11-11T14:30:27.962Z,14.10
2018-11-11T14:32:57.092Z,14.00
2018-11-11T14:35:25.320Z,13.90
2018-11-11T14:37:53.648Z,13.70
2018-11-11T14:40:23.275Z,13.60
2018-11-11T14:42:51.500Z,13.40
2018-11-11T14:45:20.305Z,13.30
2018-11-11T14:47:49.736Z,13.40
2018-11-11T14:50:18.640Z,13.40
2018-11-11T14:52:47.082Z,13.40
2018-11-11T14:55:18.438Z,13.50
2018-11-11T14:57:46.648Z,13.50
2018-11-11T15:00:17.419Z,13.50
2018-11-11T15:02:50.124Z,13.50
2018-11-11T15:05:18.325Z,13.40
2018-11-11T15:07:46.539Z,13.40
2018-11-11T15:10:14.755Z,13.40
2018-11-11T15:12:45.971Z,13.40
2018-11-11T15:15:15.666Z,13.40
2018-11-11T15:17:44.594Z,13.40
2018-11-11T15:20:13.798Z,13.40
2018-11-11T15:22:42.163Z,13.40
2018-11-11T15:25:12.288Z,13.40
2018-11-11T15:27:41.203Z,13.40
2018-11-11T15:30:12.169Z,13.40
2018-11-11T15:32:40.497Z,13.40
2018-11-11T15:35:08.762Z,13.30
2018-11-11T15:37:37.439Z,13.30
2018-11-11T15:40:07.905Z,13.30
2018-11-11T15:42:36.143Z,13.30
2018-11-11T15:45:06.298Z,13.30
2018-11-11T15:47:34.581Z,13.20
2018-11-11T15:50:02.868Z,13.10
2018-11-11T15:52:31.093Z,13.10
2018-11-11T15:54:59.382Z,13.10
2018-11-11T15:57:29.549Z,13.10
2018-11-11T15:59:57.748Z,13.10
2018-11-11T16:02:26.022Z,13.00
2018-11-11T16:04:54.257Z,13.00
2018-11-11T16:07:22.539Z,12.90
2018-11-11T16:09:51.059Z,12.90
2018-11-11T16:12:19.577Z,12.80
2018-11-11T16:14:47.805Z,12.80
2018-11-11T16:17:16.073Z,12.80
2018-11-11T16:19:44.559Z,12.80
2018-11-11T16:22:12.787Z,12.80
2018-11-11T16:24:41.036Z,12.80
2018-11-11T16:27:09.306Z,12.90
2018-11-11T16:29:37.556Z,12.90
2018-11-11T16:32:06.099Z,12.90
2018-11-11T16:34:34.336Z,13.00
2018-11-11T16:37:02.852Z,13.00
2018-11-11T16:39:31.235Z,13.00
2018-11-11T16:41:59.655Z,13.00
2018-11-11T16:44:27.806Z,13.10
2018-11-11T16:46:56.066Z,13.10
2018-11-11T16:49:24.281Z,13.00
2018-11-11T16:51:52.565Z,13.10
2018-11-11T16:54:20.997Z,13.10
2018-11-11T16:56:49.277Z,13.00
2018-11-11T16:59:17.973Z,13.00
2018-11-11T17:01:46.269Z,13.00
2018-11-11T17:04:14.800Z,13.00
2018-11-11T17:06:43.021Z,13.00
2018-11-11T17:09:13.161Z,13.10
2018-11-11T17:11:41.542Z,13.10
2018-11-11T17:14:10.078Z,13.20
2018-11-11T17:16:38.293Z,13.20
2018-11-11T17:19:06.641Z,13.20
2018-11-11T17:21:35.150Z,13.20
2018-11-11T17:24:03.513Z,13.30
2018-11-11T17:26:31.785Z,13.30
2018-11-11T17:29:00.051Z,13.30
2018-11-11T17:31:28.309Z,13.30
2018-11-11T17:33:56.520Z,13.30
2018-11-11T17:36:24.792Z,13.40
2018-11-11T17:38:53.192Z,13.40
2018-11-11T17:41:21.466Z,13.40
2018-11-11T17:43:49.763Z,13.40
2018-11-11T17:46:18.097Z,13.40
2018-11-11T17:48:46.358Z,13.50
2018-11-11T17:51:14.568Z,13.50
2018-11-11T17:53:42.859Z,13.50
2018-11-11T17:56:11.123Z,13.50
2018-11-11T17:58:39.397Z,13.60
2018-11-11T18:01:07.762Z,13.60
2018-11-11T18:03:35.961Z,13.60
2018-11-11T18:06:04.197Z,13.50
2018-11-11T18:08:32.413Z,13.50
2018-11-11T18:11:00.703Z,13.50
2018-11-11T18:13:30.729Z,13.50
2018-11-11T18:15:58.992Z,13.50
2018-11-11T18:18:27.267Z,13.50
2018-11-11T18:20:55.589Z,13.50
2018-11-11T18:23:23.885Z,13.50
2018-11-11T18:25:52.151Z,13.40
2018-11-11T18:28:20.448Z,13.40
2018-11-11T18:30:48.703Z,13.40
2018-11-11T18:33:17.003Z,13.40
2018-11-11T18:35:45.262Z,13.40
2018-11-11T18:38:13.568Z,13.40
2018-11-11T18:40:41.843Z,13.30
2018-11-11T18:43:10.138Z,13.20
2018-11-11T18:45:38.469Z,13.20
2018-11-11T18:48:06.756Z,13.20
2018-11-11T18:50:34.944Z,13.30
2018-11-11T18:53:03.838Z,13.30
2018-11-11T18:55:32.232Z,13.30
2018-11-11T18:58:00.820Z,13.30
2018-11-11T19:00:30.442Z,13.20
2018-11-11T19:02:58.881Z,13.20
2018-11-11T19:05:27.549Z,13.20
2018-11-11T19:07:56.045Z,13.10
2018-11-11T19:10:25.803Z,13.20
2018-11-11T19:12:55.355Z,13.10
2018-11-11T19:15:23.749Z,13.10
2018-11-11T19:17:52.807Z,13.10
2018-11-11T19:20:22.318Z,13.10
2018-11-11T19:22:50.629Z,13.10
2018-11-11T19:25:20.133Z,13.10
2018-11-11T19:27:49.867Z,13.10
2018-11-11T19:30:19.081Z,13.20
2018-11-11T19:32:47.834Z,13.10
2018-11-11T19:35:16.441Z,13.10
2018-11-11T19:37:45.847Z,13.10
2018-11-11T19:40:17.594Z,13.10
2018-11-11T19:42:46.154Z,13.00
2018-11-11T19:45:15.772Z,12.90
2018-11-11T19:47:44.116Z,12.80
2018-11-11T19:50:13.729Z,12.80
2018-11-11T19:52:43.569Z,12.70
2018-11-11T19:55:12.569Z,12.70
2018-11-11T19:57:41.318Z,12.70
2018-11-11T20:00:11.458Z,12.70
2018-11-11T20:02:40.082Z,12.60
2018-11-11T20:05:09.699Z,12.60
2018-11-11T20:07:38.345Z,12.60
2018-11-11T20:10:08.707Z,12.60
2018-11-11T20:12:37.000Z,12.60
2018-11-11T20:15:07.436Z,12.60
2018-11-11T20:17:35.786Z,12.50
2018-11-11T20:20:04.545Z,12.60
2018-11-11T20:22:32.813Z,12.60
2018-11-11T20:25:01.075Z,12.60
2018-11-11T20:27:29.642Z,12.50
2018-11-11T20:29:57.941Z,12.50
2018-11-11T20:32:26.239Z,12.50
2018-11-11T20:34:54.804Z,12.30
2018-11-11T20:37:23.247Z,12.20
2018-11-11T20:39:51.478Z,12.20
2018-11-11T20:42:19.736Z,12.20
2018-11-11T20:44:48.004Z,12.20
2018-11-11T20:47:16.273Z,12.20
2018-11-11T20:49:45.042Z,12.20
2018-11-11T20:52:13.280Z,12.30
2018-11-11T20:54:41.517Z,12.30
2018-11-11T20:57:09.781Z,12.40
2018-11-11T20:59:38.051Z,12.40
2018-11-11T21:02:06.499Z,12.40
2018-11-11T21:04:34.912Z,12.40
2018-11-11T21:07:03.340Z,12.40
2018-11-11T21:09:31.605Z,12.40
2018-11-11T21:11:59.917Z,12.30
2018-11-11T21:14:28.189Z,12.30
2018-11-11T21:16:56.410Z,12.20
2018-11-11T21:19:24.693Z,12.20
2018-11-11T21:21:52.920Z,12.10
2018-11-11T21:24:21.160Z,12.10
2018-11-11T21:26:49.434Z,12.00
2018-11-11T21:29:17.644Z,11.90
2018-11-11T21:31:45.956Z,11.90
2018-11-11T21:34:14.207Z,11.80
2018-11-11T21:36:42.458Z,11.90
2018-11-11T21:39:12.280Z,11.80
2018-11-11T21:41:40.945Z,11.80
2018-11-11T21:44:09.191Z,11.80
2018-11-11T21:46:37.770Z,11.80
2018-11-11T21:49:06.240Z,11.90
2018-11-11T21:51:34.433Z,11.90
2018-11-11T21:54:02.660Z,11.90
2018-11-11T21:56:30.885Z,11.80
2018-11-11T21:58:59.148Z,11.80
2018-11-11T22:01:27.418Z,11.90
2018-11-11T22:03:55.703Z,11.90
2018-11-11T22:06:24.009Z,12.00
2018-11-11T22:08:52.360Z,11.90
2018-11-11T22:11:20.551Z,11.90
2018-11-11T22:13:48.800Z,11.90
2018-11-11T22:16:17.031Z,11.90
2018-11-11T22:18:45.923Z,11.90
2018-11-11T22:21:14.186Z,12.00
2018-11-11T22:23:42.400Z,12.00
2018-11-11T22:26:10.678Z,11.90
2018-11-11T22:28:38.931Z,11.90
2018-11-11T22:31:07.210Z,11.90
2018-11-11T22:33:35.449Z,12.00
2018-11-11T22:36:03.737Z,12.00
2018-11-11T22:38:31.974Z,12.00
2018-11-11T22:41:00.180Z,12.00
2018-11-11T22:43:28.409Z,12.10
2018-11-11T22:45:56.699Z,12.10
2018-11-11T22:48:24.991Z,12.10
2018-11-11T22:50:53.242Z,12.10
2018-11-11T22:53:21.512Z,12.20
2018-11-11T22:55:49.754Z,12.20
2018-11-11T22:58:17.996Z,12.30
2018-11-11T23:00:51.503Z,12.30
2018-11-11T23:03:19.737Z,12.30
2018-11-11T23:05:47.973Z,12.30
2018-11-11T23:08:16.517Z,12.20
2018-11-11T23:10:44.767Z,12.20
2018-11-11T23:13:13.046Z,12.20
2018-11-11T23:15:41.288Z,12.30
2018-11-11T23:18:09.495Z,12.30
2018-11-11T23:20:37.815Z,12.30
2018-11-11T23:23:06.080Z,12.30
2018-11-11T23:25:34.328Z,12.40
2018-11-11T23:28:02.632Z,12.30
2018-11-11T23:30:30.924Z,12.30
2018-11-11T23:32:59.203Z,12.30
2018-11-11T23:35:27.526Z,12.30
2018-11-11T23:37:55.766Z,12.30
2018-11-11T23:40:23.985Z,12.20
2018-11-11T23:42:52.263Z,12.30
2018-11-11T23:45:20.488Z,12.20
2018-11-11T23:47:48.737Z,12.30
2018-11-11T23:50:18.482Z,12.30
2018-11-11T23:52:47.058Z,12.20
2018-11-11T23:55:16.442Z,12.30
2018-11-11T23:57:44.736Z,12.30
